createdAt,value
2023-02-22T00:01:19.451Z,12.30
2023-02-22T00:03:52.268Z,9.73
2023-02-22T00:06:21.856Z,10.70
2023-02-22T00:08:50.178Z,11.15
2023-02-22T00:11:18.035Z,11.43
2023-02-22T00:13:45.407Z,10.45
2023-02-22T00:16:18.707Z,10.82
2023-02-22T00:18:46.627Z,11.85
2023-02-22T00:21:15.584Z,11.50
2023-02-22T00:23:48.692Z,13.07
2023-02-22T00:26:20.027Z,12.60
2023-02-22T00:28:49.543Z,12.07
2023-02-22T00:31:22.808Z,10.95
2023-02-22T00:34:03.277Z,10.80
2023-02-22T00:36:30.752Z,11.35
2023-02-22T00:38:58.106Z,10.25
2023-02-22T00:41:25.659Z,9.98
2023-02-22T00:43:55.191Z,9.00
2023-02-22T00:46:22.595Z,8.82
2023-02-22T00:48:50.085Z,8.52
2023-02-22T00:51:17.757Z,11.98
2023-02-22T00:53:45.723Z,8.68
2023-02-22T00:56:15.016Z,9.60
2023-02-22T00:58:42.434Z,8.88
2023-02-22T01:01:09.895Z,25.33
2023-02-22T01:03:41.495Z,15.68
2023-02-22T01:06:08.994Z,21.88
2023-02-22T01:08:37.338Z,22.77
2023-02-22T01:11:04.986Z,13.25
2023-02-22T01:13:33.121Z,8.85
2023-02-22T01:16:01.514Z,8.02
2023-02-22T01:18:28.820Z,25.23
2023-02-22T01:20:56.286Z,112.57
2023-02-22T01:23:23.610Z,22.95
2023-02-22T01:25:52.133Z,23.52
2023-02-22T01:28:19.606Z,24.35
2023-02-22T01:30:48.635Z,15.15
2023-02-22T01:33:23.287Z,8.85
2023-02-22T01:35:51.572Z,8.63
2023-02-22T01:38:19.224Z,7.78
2023-02-22T01:40:50.682Z,12.25
2023-02-22T01:43:29.912Z,9.90
2023-02-22T01:46:21.421Z,11.43
2023-02-22T01:48:59.692Z,8.90
2023-02-22T01:51:31.391Z,9.25
2023-02-22T01:54:18.697Z,10.50
2023-02-22T01:57:01.190Z,9.32
2023-02-22T01:59:33.388Z,8.60
2023-02-22T02:02:00.935Z,8.23
2023-02-22T02:04:29.638Z,9.90
2023-02-22T02:07:01.910Z,7.75
2023-02-22T02:10:00.616Z,8.77
2023-02-22T02:12:36.071Z,8.23
2023-02-22T02:15:29.248Z,7.28
2023-02-22T02:18:01.053Z,7.57
2023-02-22T02:20:47.655Z,7.68
2023-02-22T02:23:26.182Z,8.98
2023-02-22T02:25:58.958Z,8.30
2023-02-22T02:28:30.965Z,8.27
2023-02-22T02:31:26.046Z,7.15
2023-02-22T02:34:16.875Z,7.03
2023-02-22T02:37:07.013Z,6.88
2023-02-22T02:40:11.663Z,7.47
2023-02-22T02:42:46.442Z,7.28
2023-02-22T02:45:24.264Z,7.70
2023-02-22T02:47:59.901Z,11.70
2023-02-22T02:50:34.235Z,9.75
2023-02-22T02:53:06.134Z,8.23
2023-02-22T02:55:37.022Z,7.53
2023-02-22T02:58:18.504Z,9.20
2023-02-22T03:00:46.445Z,6.18
2023-02-22T03:03:37.862Z,6.35
2023-02-22T03:06:20.712Z,6.35
2023-02-22T03:09:09.315Z,6.47
2023-02-22T03:12:12.152Z,6.57
2023-02-22T03:14:48.777Z,7.13
2023-02-22T03:17:49.374Z,7.25
2023-02-22T03:20:50.783Z,7.60
2023-02-22T03:23:44.514Z,7.72
2023-02-22T03:26:15.291Z,11.80
2023-02-22T03:28:51.524Z,11.02
2023-02-22T03:31:26.454Z,10.85
2023-02-22T03:33:59.323Z,6.63
2023-02-22T03:36:33.919Z,7.35
2023-02-22T03:39:04.555Z,6.30
2023-02-22T03:41:35.099Z,6.47
2023-02-22T03:44:09.769Z,7.10
2023-02-22T03:46:41.295Z,8.57
2023-02-22T03:49:35.765Z,7.38
2023-02-22T03:52:05.413Z,6.68
2023-02-22T03:54:33.405Z,7.60
2023-02-22T03:57:34.246Z,7.20
2023-02-22T04:00:07.128Z,6.93
2023-02-22T04:02:35.103Z,6.47
2023-02-22T04:05:03.083Z,6.28
2023-02-22T04:07:30.578Z,7.28
2023-02-22T04:09:59.195Z,7.28
2023-02-22T04:12:28.657Z,7.70
2023-02-22T04:14:55.899Z,7.03
2023-02-22T04:17:23.338Z,6.72
2023-02-22T04:19:51.723Z,7.05
2023-02-22T04:22:18.902Z,6.50
2023-02-22T04:24:46.337Z,17.45
2023-02-22T04:27:13.744Z,8.57
2023-02-22T04:29:41.463Z,6.90
2023-02-22T04:32:10.468Z,6.75
2023-02-22T04:34:37.679Z,8.20
2023-02-22T04:37:05.246Z,7.32
2023-02-22T04:39:32.700Z,7.18
2023-02-22T04:42:01.155Z,7.63
2023-02-22T04:44:28.605Z,6.75
2023-02-22T04:46:57.838Z,7.03
2023-02-22T04:49:31.785Z,7.20
2023-02-22T04:52:05.329Z,8.18
2023-02-22T04:54:32.843Z,7.65
2023-02-22T04:57:00.224Z,8.20
2023-02-22T04:59:28.665Z,7.63
2023-02-22T05:01:55.854Z,7.88
2023-02-22T05:04:24.111Z,8.07
2023-02-22T05:06:53.424Z,7.60
2023-02-22T05:09:22.147Z,8.82
2023-02-22T05:11:50.649Z,8.65
2023-02-22T05:14:18.032Z,9.88
2023-02-22T05:16:45.499Z,8.80
2023-02-22T05:19:13.045Z,10.43
2023-02-22T05:21:40.706Z,8.60
2023-02-22T05:24:09.913Z,9.90
2023-02-22T05:26:37.522Z,8.02
2023-02-22T05:29:04.787Z,8.20
2023-02-22T05:31:31.976Z,8.82
2023-02-22T05:33:59.356Z,10.20
2023-02-22T05:36:28.330Z,8.48
2023-02-22T05:38:56.412Z,8.68
2023-02-22T05:41:23.704Z,8.13
2023-02-22T05:43:51.109Z,8.25
2023-02-22T05:46:24.268Z,8.48
2023-02-22T05:48:51.698Z,8.25
2023-02-22T05:51:24.953Z,8.48
2023-02-22T05:53:52.918Z,8.45
2023-02-22T05:56:25.242Z,8.32
2023-02-22T05:58:52.995Z,9.15
2023-02-22T06:01:20.718Z,8.55
2023-02-22T06:03:50.039Z,9.00
2023-02-22T06:06:22.162Z,8.32
2023-02-22T06:08:50.895Z,8.05
2023-02-22T06:11:20.043Z,10.38
2023-02-22T06:13:52.721Z,8.68
2023-02-22T06:16:22.044Z,9.30
2023-02-22T06:18:49.750Z,9.77
2023-02-22T06:21:17.972Z,9.30
2023-02-22T06:23:48.197Z,8.18
2023-02-22T06:26:20.243Z,7.20
2023-02-22T06:28:47.608Z,7.03
2023-02-22T06:31:15.191Z,8.65
2023-02-22T06:33:42.725Z,8.98
2023-02-22T06:36:11.697Z,8.48
2023-02-22T06:38:39.226Z,9.18
2023-02-22T06:41:06.636Z,9.85
2023-02-22T06:43:34.116Z,11.80
2023-02-22T06:46:01.645Z,13.25
2023-02-22T06:48:28.988Z,11.32
2023-02-22T06:50:56.016Z,13.27
2023-02-22T06:53:23.519Z,28.65
2023-02-22T06:55:53.599Z,27.75
2023-02-22T06:58:20.925Z,20.50
2023-02-22T07:00:48.385Z,17.33
2023-02-22T07:03:16.693Z,14.73
2023-02-22T07:05:43.883Z,21.17
2023-02-22T07:08:12.292Z,20.45
2023-02-22T07:10:40.810Z,30.60
2023-02-22T07:13:09.390Z,31.67
2023-02-22T07:15:36.813Z,13.52
2023-02-22T07:18:04.717Z,22.52
2023-02-22T07:20:32.737Z,30.83
2023-02-22T07:23:01.527Z,18.85
2023-02-22T07:25:28.678Z,19.65
2023-02-22T07:27:56.013Z,24.58
2023-02-22T07:30:31.587Z,24.00
2023-02-22T07:33:01.804Z,20.42
2023-02-22T07:35:46.820Z,20.77
2023-02-22T07:38:16.372Z,20.77
2023-02-22T07:40:44.093Z,21.45
2023-02-22T07:43:22.819Z,21.10
2023-02-22T07:45:51.582Z,18.50
2023-02-22T07:48:20.902Z,18.40
2023-02-22T07:50:48.276Z,16.60
2023-02-22T07:53:30.493Z,14.75
2023-02-22T07:56:03.765Z,13.10
2023-02-22T07:58:32.954Z,11.85
2023-02-22T08:01:02.487Z,12.85
2023-02-22T08:03:34.560Z,11.43
2023-02-22T08:06:03.352Z,10.57
2023-02-22T08:08:30.633Z,11.10
2023-02-22T08:11:01.125Z,11.07
2023-02-22T08:13:29.633Z,10.65
2023-02-22T08:15:57.008Z,11.07
2023-02-22T08:18:25.824Z,9.77
2023-02-22T08:20:54.002Z,12.55
2023-02-22T08:23:25.513Z,11.05
2023-02-22T08:25:53.846Z,9.95
2023-02-22T08:28:23.813Z,11.20
2023-02-22T08:30:59.436Z,10.90
2023-02-22T08:33:26.845Z,7.70
2023-02-22T08:35:55.299Z,8.60
2023-02-22T08:38:29.192Z,9.77
2023-02-22T08:40:57.225Z,7.45
2023-02-22T08:43:24.988Z,9.15
2023-02-22T08:45:57.464Z,19.75
2023-02-22T08:48:31.316Z,9.07
2023-02-22T08:50:59.131Z,8.63
2023-02-22T08:53:27.316Z,8.35
2023-02-22T08:55:55.751Z,8.20
2023-02-22T08:58:24.309Z,9.47
2023-02-22T09:00:51.762Z,7.95
2023-02-22T09:03:19.308Z,9.82
2023-02-22T09:05:46.710Z,7.15
2023-02-22T09:08:15.553Z,6.70
2023-02-22T09:10:43.193Z,6.90
2023-02-22T09:13:12.315Z,7.03
2023-02-22T09:15:40.309Z,7.20
2023-02-22T09:18:09.530Z,6.93
2023-02-22T09:20:37.519Z,6.72
2023-02-22T09:23:09.922Z,6.50
2023-02-22T09:25:41.204Z,6.57
2023-02-22T09:28:09.458Z,5.85
2023-02-22T09:30:43.189Z,7.68
2023-02-22T09:33:13.733Z,7.30
2023-02-22T09:35:42.966Z,6.50
2023-02-22T09:38:11.644Z,9.10
2023-02-22T09:40:46.189Z,6.93
2023-02-22T09:43:25.465Z,7.72
2023-02-22T09:46:06.145Z,7.85
2023-02-22T09:48:49.194Z,7.28
2023-02-22T09:51:19.644Z,6.97
2023-02-22T09:53:50.138Z,6.28
2023-02-22T09:56:20.892Z,7.68
2023-02-22T09:58:53.054Z,7.43
2023-02-22T10:01:30.252Z,7.70
2023-02-22T10:04:23.290Z,7.55
2023-02-22T10:06:56.243Z,9.77
2023-02-22T10:09:30.754Z,8.70
2023-02-22T10:12:03.277Z,8.57
2023-02-22T10:14:43.804Z,7.32
2023-02-22T10:17:36.104Z,7.25
2023-02-22T10:20:41.349Z,6.70
2023-02-22T10:23:26.257Z,5.38
2023-02-22T10:26:00.782Z,4.05
2023-02-22T10:28:55.599Z,5.30
2023-02-22T10:31:31.598Z,5.28
2023-02-22T10:34:07.878Z,5.22
2023-02-22T10:36:39.410Z,5.22
2023-02-22T10:39:35.415Z,8.23
2023-02-22T10:42:07.214Z,6.55
2023-02-22T10:44:36.368Z,5.97
2023-02-22T10:47:07.425Z,6.20
2023-02-22T10:49:41.533Z,6.40
2023-02-22T10:52:19.719Z,6.40
2023-02-22T10:55:13.808Z,6.90
2023-02-22T10:57:42.589Z,6.32
2023-02-22T11:00:29.743Z,8.45
2023-02-22T11:03:02.171Z,9.10
2023-02-22T11:05:38.588Z,5.50
2023-02-22T11:08:16.940Z,5.07
2023-02-22T11:10:44.519Z,6.90
2023-02-22T11:13:28.315Z,5.57
2023-02-22T11:16:01.302Z,5.13
2023-02-22T11:18:35.427Z,6.55
2023-02-22T11:21:10.573Z,6.00
2023-02-22T11:23:40.607Z,5.80
2023-02-22T11:26:17.830Z,6.00
2023-02-22T11:28:56.371Z,5.28
2023-02-22T11:31:27.766Z,6.05
2023-02-22T11:34:03.265Z,5.72
2023-02-22T11:36:41.212Z,5.78
2023-02-22T11:39:34.619Z,5.07
2023-02-22T11:42:25.422Z,4.73
2023-02-22T11:45:21.776Z,5.05
2023-02-22T11:48:01.384Z,5.57
2023-02-22T11:50:40.171Z,5.38
2023-02-22T11:53:52.370Z,5.47
2023-02-22T11:56:37.953Z,6.38
2023-02-22T11:59:21.410Z,6.32
2023-02-22T12:02:00.262Z,7.00
2023-02-22T12:05:00.802Z,6.43
2023-02-22T12:07:33.264Z,9.50
2023-02-22T12:10:16.007Z,7.97
2023-02-22T12:13:10.908Z,6.32
2023-02-22T12:15:54.208Z,5.75
2023-02-22T12:18:35.986Z,5.78
2023-02-22T12:21:09.510Z,5.35
2023-02-22T12:23:46.209Z,5.22
2023-02-22T12:26:26.639Z,5.75
2023-02-22T12:29:05.544Z,8.75
2023-02-22T12:31:53.532Z,6.15
2023-02-22T12:34:29.890Z,5.10
2023-02-22T12:37:35.400Z,6.32
2023-02-22T12:40:24.406Z,7.68
2023-02-22T12:43:32.830Z,5.05
2023-02-22T12:46:13.349Z,6.15
2023-02-22T12:49:01.094Z,5.90
2023-02-22T12:51:42.391Z,6.53
2023-02-22T12:54:34.223Z,5.60
2023-02-22T12:57:33.619Z,5.18
2023-02-22T13:00:12.576Z,5.70
2023-02-22T13:02:47.963Z,6.20
2023-02-22T13:05:19.223Z,5.57
2023-02-22T13:08:02.054Z,6.40
2023-02-22T13:10:32.955Z,5.18
2023-02-22T13:13:21.852Z,5.55
2023-02-22T13:16:22.085Z,4.68
2023-02-22T13:19:15.107Z,65.60
2023-02-22T13:21:47.744Z,5.80
2023-02-22T13:24:17.791Z,4.22
2023-02-22T13:26:56.771Z,5.22
2023-02-22T13:29:47.120Z,4.95
2023-02-22T13:32:47.269Z,5.25
2023-02-22T13:35:42.352Z,4.38
2023-02-22T13:38:46.895Z,4.20
2023-02-22T13:44:07.940Z,5.80
2023-02-22T13:46:58.223Z,8.10
2023-02-22T13:50:03.548Z,7.70
2023-02-22T13:52:35.151Z,7.47
2023-02-22T13:55:12.218Z,7.00
2023-02-22T13:57:52.025Z,11.93
2023-02-22T14:00:23.224Z,4.13
2023-02-22T14:03:08.635Z,5.82
2023-02-22T14:05:44.961Z,4.95
2023-02-22T14:08:19.187Z,4.88
2023-02-22T14:10:55.374Z,3.28
2023-02-22T14:13:30.207Z,5.68
2023-02-22T14:16:02.773Z,5.80
2023-02-22T14:18:35.604Z,4.90
2023-02-22T14:21:15.994Z,10.30
2023-02-22T14:23:47.501Z,5.78
2023-02-22T14:26:35.044Z,5.43
2023-02-22T14:29:08.465Z,6.00
2023-02-22T14:31:41.372Z,6.05
2023-02-22T14:34:17.703Z,6.30
2023-02-22T14:37:25.199Z,6.38
2023-02-22T14:40:15.850Z,7.25
2023-02-22T14:42:48.626Z,6.53
2023-02-22T14:45:30.135Z,7.03
2023-02-22T14:48:25.321Z,7.50
2023-02-22T14:51:11.894Z,7.68
2023-02-22T14:53:54.544Z,10.00
2023-02-22T14:56:23.716Z,10.05
2023-02-22T14:59:17.935Z,8.80
2023-02-22T15:02:02.170Z,9.70
2023-02-22T15:04:36.139Z,7.97
2023-02-22T15:07:21.510Z,7.85
2023-02-22T15:09:50.299Z,6.22
2023-02-22T15:12:30.413Z,6.95
2023-02-22T15:15:27.809Z,5.20
2023-02-22T15:17:59.138Z,4.45
2023-02-22T15:20:35.481Z,3.95
2023-02-22T15:23:02.910Z,4.30
2023-02-22T15:25:31.756Z,5.07
2023-02-22T15:28:09.735Z,4.50
2023-02-22T15:30:38.341Z,4.57
2023-02-22T15:33:18.032Z,4.65
2023-02-22T15:35:45.314Z,4.32
2023-02-22T15:38:12.843Z,5.25
2023-02-22T15:40:43.433Z,7.72
2023-02-22T15:43:25.429Z,6.50
2023-02-22T15:45:52.979Z,6.20
2023-02-22T15:48:28.510Z,6.65
2023-02-22T15:51:12.643Z,6.85
2023-02-22T15:53:46.374Z,6.40
2023-02-22T15:58:46.769Z,10.15
2023-02-22T16:01:19.959Z,14.75
2023-02-22T16:04:00.249Z,16.10
2023-02-22T16:06:35.601Z,19.17
2023-02-22T16:09:26.398Z,26.52
2023-02-22T16:12:31.820Z,16.75
2023-02-22T16:15:17.134Z,10.15
2023-02-22T16:17:59.776Z,7.82
2023-02-22T16:20:32.813Z,7.50
2023-02-22T16:23:00.377Z,6.93
2023-02-22T16:25:36.103Z,7.50
2023-02-22T16:28:31.028Z,7.22
2023-02-22T16:31:05.611Z,6.55
2023-02-22T16:33:34.300Z,7.00
2023-02-22T16:36:06.565Z,7.10
2023-02-22T16:38:34.393Z,8.00
2023-02-22T16:41:01.842Z,7.70
2023-02-22T16:43:33.186Z,7.20
2023-02-22T16:46:02.006Z,7.90
2023-02-22T16:48:38.595Z,9.57
2023-02-22T16:51:55.919Z,11.13
2023-02-22T16:54:36.743Z,11.63
2023-02-22T16:57:06.116Z,10.90
2023-02-22T16:59:37.602Z,9.95
2023-02-22T17:02:08.272Z,10.25
2023-02-22T17:04:35.904Z,10.30
2023-02-22T17:07:05.207Z,13.35
2023-02-22T17:09:33.846Z,16.55
2023-02-22T17:12:02.316Z,16.95
2023-02-22T17:14:34.034Z,13.30
2023-02-22T17:17:01.960Z,13.52
2023-02-22T17:19:29.853Z,12.35
2023-02-22T17:21:59.544Z,13.70
2023-02-22T17:24:29.893Z,11.77
2023-02-22T17:27:00.599Z,12.15
2023-02-22T17:29:30.629Z,11.88
2023-02-22T17:31:59.231Z,13.40
2023-02-22T17:34:27.445Z,15.73
2023-02-22T17:36:55.647Z,15.05
2023-02-22T17:39:23.620Z,16.63
2023-02-22T17:41:58.057Z,16.13
2023-02-22T17:44:32.631Z,17.95
2023-02-22T17:47:02.535Z,20.02
2023-02-22T17:49:30.492Z,26.52
2023-02-22T17:52:00.151Z,29.48
2023-02-22T17:54:34.122Z,28.55
2023-02-22T17:57:02.432Z,28.00
2023-02-22T17:59:30.353Z,26.48
2023-02-22T18:01:58.696Z,25.65
2023-02-22T18:04:26.618Z,26.92
2023-02-22T18:06:55.834Z,29.35
2023-02-22T18:09:24.314Z,31.25
2023-02-22T18:11:59.327Z,35.67
2023-02-22T18:14:30.506Z,33.22
2023-02-22T18:17:01.018Z,33.88
2023-02-22T18:19:29.774Z,30.25
2023-02-22T18:22:03.810Z,34.35
2023-02-22T18:24:36.695Z,32.38
2023-02-22T18:27:07.676Z,34.08
2023-02-22T18:29:37.504Z,32.85
2023-02-22T18:32:08.925Z,32.70
2023-02-22T18:34:36.811Z,34.03
2023-02-22T18:37:06.448Z,31.60
2023-02-22T18:39:41.445Z,27.00
2023-02-22T18:42:14.180Z,21.50
2023-02-22T18:44:48.706Z,19.10
2023-02-22T18:47:17.144Z,22.58
2023-02-22T18:49:46.605Z,26.83
2023-02-22T18:52:16.559Z,29.02
2023-02-22T18:54:45.104Z,31.52
2023-02-22T18:57:14.704Z,29.45
2023-02-22T18:59:44.303Z,30.63
2023-02-22T19:02:19.936Z,29.42
2023-02-22T19:04:49.632Z,29.15
2023-02-22T19:07:20.269Z,24.42
2023-02-22T19:09:52.288Z,26.92
2023-02-22T19:12:21.401Z,30.67
2023-02-22T19:14:49.561Z,27.60
2023-02-22T19:17:17.432Z,42.78
2023-02-22T19:19:47.823Z,45.67
2023-02-22T19:22:16.772Z,23.40
2023-02-22T19:24:49.401Z,36.97
2023-02-22T19:27:27.180Z,43.13
2023-02-22T19:29:55.343Z,38.50
2023-02-22T19:32:24.295Z,30.23
2023-02-22T19:35:08.448Z,30.70
2023-02-22T19:37:37.995Z,28.92
2023-02-22T19:40:12.460Z,27.02
2023-02-22T19:42:51.151Z,21.85
2023-02-22T19:45:20.588Z,16.98
2023-02-22T19:47:57.754Z,16.50
2023-02-22T19:50:26.016Z,26.23
2023-02-22T19:52:56.792Z,27.38
2023-02-22T19:55:32.543Z,29.98
2023-02-22T19:58:03.154Z,25.92
2023-02-22T20:00:36.397Z,23.30
2023-02-22T20:03:10.042Z,17.80
2023-02-22T20:05:47.725Z,16.35
2023-02-22T20:08:16.447Z,15.05
2023-02-22T20:10:47.605Z,15.07
2023-02-22T20:13:17.894Z,14.43
2023-02-22T20:15:46.116Z,15.25
2023-02-22T20:18:14.946Z,15.48
2023-02-22T20:20:45.881Z,18.45
2023-02-22T20:23:13.960Z,26.05
2023-02-22T20:25:43.295Z,36.65
2023-02-22T20:28:14.665Z,37.35
2023-02-22T20:30:45.803Z,36.83
2023-02-22T20:33:15.302Z,44.63
2023-02-22T20:35:43.864Z,38.03
2023-02-22T20:38:14.148Z,31.80
2023-02-22T20:40:44.621Z,31.02
2023-02-22T20:43:12.763Z,34.47
2023-02-22T20:45:41.205Z,34.05
2023-02-22T20:48:13.059Z,36.35
2023-02-22T20:50:43.573Z,36.88
2023-02-22T20:53:11.993Z,35.65
2023-02-22T20:55:51.159Z,38.20
2023-02-22T20:58:23.691Z,37.78
2023-02-22T21:00:58.148Z,36.45
2023-02-22T21:03:27.665Z,36.60
2023-02-22T21:05:55.873Z,35.80
2023-02-22T21:08:31.004Z,34.95
2023-02-22T21:10:59.880Z,35.33
2023-02-22T21:13:33.831Z,34.55
2023-02-22T21:16:03.630Z,36.95
2023-02-22T21:18:31.716Z,36.88
2023-02-22T21:21:13.234Z,37.40
2023-02-22T21:23:41.889Z,41.90
2023-02-22T21:26:21.164Z,44.83
2023-02-22T21:28:55.722Z,44.28
2023-02-22T21:31:27.508Z,43.70
2023-02-22T21:34:05.017Z,40.33
2023-02-22T21:36:32.802Z,39.67
2023-02-22T21:39:08.828Z,41.83
2023-02-22T21:41:40.511Z,49.90
2023-02-22T21:44:10.104Z,47.67
2023-02-22T21:46:47.620Z,36.30
2023-02-22T21:49:15.320Z,34.95
2023-02-22T21:51:45.014Z,34.03
2023-02-22T21:54:13.169Z,35.13
2023-02-22T21:56:43.451Z,34.80
2023-02-22T21:59:19.088Z,36.33
2023-02-22T22:01:50.310Z,40.30
2023-02-22T22:04:21.260Z,39.28
2023-02-22T22:06:53.995Z,38.13
2023-02-22T22:09:24.264Z,30.70
2023-02-22T22:12:06.485Z,34.08
2023-02-22T22:14:35.477Z,40.50
2023-02-22T22:17:05.935Z,47.85
2023-02-22T22:19:39.474Z,43.83
2023-02-22T22:22:08.323Z,39.08
2023-02-22T22:24:37.365Z,38.60
2023-02-22T22:27:06.698Z,42.78
2023-02-22T22:29:34.752Z,41.28
2023-02-22T22:32:03.582Z,42.63
2023-02-22T22:34:31.331Z,35.90
2023-02-22T22:36:59.682Z,30.33
2023-02-22T22:39:29.156Z,27.60
2023-02-22T22:41:57.222Z,28.45
2023-02-22T22:44:24.594Z,27.80
2023-02-22T22:46:55.095Z,31.13
2023-02-22T22:49:25.611Z,31.80
2023-02-22T22:51:54.810Z,30.13
2023-02-22T22:54:22.062Z,28.95
2023-02-22T22:56:49.615Z,29.40
2023-02-22T22:59:18.272Z,30.10
2023-02-22T23:01:47.719Z,29.77
2023-02-22T23:04:17.208Z,30.40
2023-02-22T23:06:51.122Z,30.33
2023-02-22T23:09:28.137Z,30.40
2023-02-22T23:12:09.164Z,30.15
2023-02-22T23:14:44.415Z,30.05
2023-02-22T23:17:27.104Z,32.53
2023-02-22T23:19:54.250Z,31.52
2023-02-22T23:22:21.793Z,40.33
2023-02-22T23:24:51.204Z,37.60
2023-02-22T23:27:19.306Z,35.63
2023-02-22T23:29:47.662Z,33.95
2023-02-22T23:32:16.144Z,28.67
2023-02-22T23:34:44.257Z,27.63
2023-02-22T23:37:14.370Z,25.90
2023-02-22T23:39:43.604Z,29.15
2023-02-22T23:42:11.125Z,31.50
2023-02-22T23:44:40.080Z,30.50
2023-02-22T23:47:07.512Z,40.33
2023-02-22T23:49:38.788Z,46.15
2023-02-22T23:52:08.279Z,40.35
2023-02-22T23:54:44.241Z,37.95
2023-02-22T23:57:11.793Z,36.10
2023-02-22T23:59:45.912Z,36.58
